< < Back
Terminal Aerodrome Forecast


Current Version              Previous Versions:   1  2  3  4  5  6  7  8  9  

Terminal Aerodrome Forecast

851
FTUS44 KBMX 302321
TAFANB
TAF
KANB 302321Z 0100/0124 00000KT P6SM SKC
     FM011800 30007KT P6SM FEW090=

Latest METAR

658
SAUS70 KWBC 010200 RRX
MTRANB
METAR KANB 010153Z AUTO 17003KT 10SM CLR 24/14 A2996 RMK AO2 SLP136
T02440144


USA.gov is the U.S. government's official web portal to all federal, state and local government web resources and services.